sensor_id;sensor_type;location;lat;lon;timestamp;P1;durP1;ratioP1;P2;durP2;ratioP2
14247;SDS011;7208;49.826;6.004;2023-04-25T00:02:03;6.23;;;5.37;;
14247;SDS011;7208;49.826;6.004;2023-04-25T00:04:29;8.03;;;5.63;;
14247;SDS011;7208;49.826;6.004;2023-04-25T00:06:55;8.77;;;5.63;;
14247;SDS011;7208;49.826;6.004;2023-04-25T00:09:21;6.83;;;6.13;;
14247;SDS011;7208;49.826;6.004;2023-04-25T00:11:47;7.83;;;5.73;;
14247;SDS011;7208;49.826;6.004;2023-04-25T00:14:12;7.33;;;5.13;;
14247;SDS011;7208;49.826;6.004;2023-04-25T00:16:38;7.30;;;5.73;;
14247;SDS011;7208;49.826;6.004;2023-04-25T00:19:06;5.20;;;4.70;;
14247;SDS011;7208;49.826;6.004;2023-04-25T00:21:32;5.40;;;4.90;;
14247;SDS011;7208;49.826;6.004;2023-04-25T00:23:58;6.03;;;5.00;;
14247;SDS011;7208;49.826;6.004;2023-04-25T00:26:24;6.87;;;4.70;;
14247;SDS011;7208;49.826;6.004;2023-04-25T00:28:50;5.07;;;4.57;;
14247;SDS011;7208;49.826;6.004;2023-04-25T00:31:16;5.17;;;4.73;;
14247;SDS011;7208;49.826;6.004;2023-04-25T00:33:42;7.63;;;4.63;;
14247;SDS011;7208;49.826;6.004;2023-04-25T00:36:07;5.43;;;4.80;;
14247;SDS011;7208;49.826;6.004;2023-04-25T00:38:34;7.40;;;5.60;;
14247;SDS011;7208;49.826;6.004;2023-04-25T00:41:00;6.53;;;5.80;;
14247;SDS011;7208;49.826;6.004;2023-04-25T00:43:26;7.60;;;4.93;;
14247;SDS011;7208;49.826;6.004;2023-04-25T00:45:52;6.53;;;4.47;;
14247;SDS011;7208;49.826;6.004;2023-04-25T00:48:19;6.60;;;5.03;;
14247;SDS011;7208;49.826;6.004;2023-04-25T00:50:51;4.93;;;4.37;;
14247;SDS011;7208;49.826;6.004;2023-04-25T00:53:21;6.10;;;5.13;;
14247;SDS011;7208;49.826;6.004;2023-04-25T00:55:48;6.40;;;5.23;;
14247;SDS011;7208;49.826;6.004;2023-04-25T00:58:16;5.97;;;5.37;;
14247;SDS011;7208;49.826;6.004;2023-04-25T01:00:43;6.27;;;4.53;;
14247;SDS011;7208;49.826;6.004;2023-04-25T01:03:10;7.00;;;4.87;;
14247;SDS011;7208;49.826;6.004;2023-04-25T01:05:36;5.43;;;4.67;;
14247;SDS011;7208;49.826;6.004;2023-04-25T01:08:02;6.27;;;5.67;;
14247;SDS011;7208;49.826;6.004;2023-04-25T01:10:28;5.53;;;4.83;;
14247;SDS011;7208;49.826;6.004;2023-04-25T01:12:54;4.90;;;4.47;;
14247;SDS011;7208;49.826;6.004;2023-04-25T01:15:20;6.83;;;5.70;;
14247;SDS011;7208;49.826;6.004;2023-04-25T01:17:46;5.47;;;4.60;;
14247;SDS011;7208;49.826;6.004;2023-04-25T01:20:12;6.93;;;4.47;;
14247;SDS011;7208;49.826;6.004;2023-04-25T01:22:39;5.13;;;4.50;;
14247;SDS011;7208;49.826;6.004;2023-04-25T01:25:06;6.53;;;4.57;;
14247;SDS011;7208;49.826;6.004;2023-04-25T01:27:32;5.17;;;4.67;;
14247;SDS011;7208;49.826;6.004;2023-04-25T01:29:58;6.03;;;4.90;;
14247;SDS011;7208;49.826;6.004;2023-04-25T01:32:25;5.93;;;5.10;;
14247;SDS011;7208;49.826;6.004;2023-04-25T01:34:51;6.77;;;5.60;;
14247;SDS011;7208;49.826;6.004;2023-04-25T01:37:17;6.63;;;5.73;;
14247;SDS011;7208;49.826;6.004;2023-04-25T01:39:43;7.07;;;5.57;;
14247;SDS011;7208;49.826;6.004;2023-04-25T01:42:09;6.50;;;5.43;;
14247;SDS011;7208;49.826;6.004;2023-04-25T01:44:34;5.83;;;5.13;;
14247;SDS011;7208;49.826;6.004;2023-04-25T01:47:00;7.10;;;4.43;;
14247;SDS011;7208;49.826;6.004;2023-04-25T01:49:26;5.33;;;4.50;;
14247;SDS011;7208;49.826;6.004;2023-04-25T01:51:51;6.37;;;5.43;;
14247;SDS011;7208;49.826;6.004;2023-04-25T01:54:17;6.80;;;5.20;;
14247;SDS011;7208;49.826;6.004;2023-04-25T01:56:49;6.77;;;5.00;;
14247;SDS011;7208;49.826;6.004;2023-04-25T01:59:16;6.37;;;5.77;;
14247;SDS011;7208;49.826;6.004;2023-04-25T02:01:43;6.13;;;5.00;;
14247;SDS011;7208;49.826;6.004;2023-04-25T02:04:08;6.53;;;4.90;;
14247;SDS011;7208;49.826;6.004;2023-04-25T02:06:34;5.63;;;5.03;;
14247;SDS011;7208;49.826;6.004;2023-04-25T02:09:00;5.63;;;5.03;;
14247;SDS011;7208;49.826;6.004;2023-04-25T02:11:25;6.27;;;5.33;;
14247;SDS011;7208;49.826;6.004;2023-04-25T02:13:51;8.17;;;5.40;;
14247;SDS011;7208;49.826;6.004;2023-04-25T02:16:17;6.23;;;5.10;;
14247;SDS011;7208;49.826;6.004;2023-04-25T02:18:43;5.07;;;4.53;;
14247;SDS011;7208;49.826;6.004;2023-04-25T02:21:10;6.43;;;5.83;;
14247;SDS011;7208;49.826;6.004;2023-04-25T02:23:36;8.20;;;6.23;;
14247;SDS011;7208;49.826;6.004;2023-04-25T02:26:02;9.37;;;5.97;;
14247;SDS011;7208;49.826;6.004;2023-04-25T02:28:28;9.97;;;5.47;;
14247;SDS011;7208;49.826;6.004;2023-04-25T02:30:54;6.77;;;6.07;;
14247;SDS011;7208;49.826;6.004;2023-04-25T02:33:19;7.57;;;6.03;;
14247;SDS011;7208;49.826;6.004;2023-04-25T02:35:46;7.77;;;6.63;;
14247;SDS011;7208;49.826;6.004;2023-04-25T02:38:11;7.80;;;6.70;;
14247;SDS011;7208;49.826;6.004;2023-04-25T02:40:37;9.73;;;5.47;;
14247;SDS011;7208;49.826;6.004;2023-04-25T02:43:03;8.10;;;5.67;;
14247;SDS011;7208;49.826;6.004;2023-04-25T02:45:28;6.17;;;5.57;;
14247;SDS011;7208;49.826;6.004;2023-04-25T02:47:54;7.47;;;6.30;;
14247;SDS011;7208;49.826;6.004;2023-04-25T02:50:20;7.17;;;6.47;;
14247;SDS011;7208;49.826;6.004;2023-04-25T02:52:45;6.97;;;6.27;;
14247;SDS011;7208;49.826;6.004;2023-04-25T02:55:12;6.90;;;6.03;;
14247;SDS011;7208;49.826;6.004;2023-04-25T02:57:38;7.17;;;5.67;;
14247;SDS011;7208;49.826;6.004;2023-04-25T03:00:04;6.43;;;5.70;;
14247;SDS011;7208;49.826;6.004;2023-04-25T03:02:30;8.27;;;6.10;;
14247;SDS011;7208;49.826;6.004;2023-04-25T03:04:56;8.47;;;5.77;;
14247;SDS011;7208;49.826;6.004;2023-04-25T03:07:21;6.07;;;5.33;;
14247;SDS011;7208;49.826;6.004;2023-04-25T03:09:47;8.00;;;5.13;;
14247;SDS011;7208;49.826;6.004;2023-04-25T03:12:13;6.73;;;5.80;;
14247;SDS011;7208;49.826;6.004;2023-04-25T03:14:38;5.87;;;5.27;;
14247;SDS011;7208;49.826;6.004;2023-04-25T03:17:04;6.73;;;5.40;;
14247;SDS011;7208;49.826;6.004;2023-04-25T03:19:30;8.37;;;5.37;;
14247;SDS011;7208;49.826;6.004;2023-04-25T03:21:55;7.60;;;5.40;;
14247;SDS011;7208;49.826;6.004;2023-04-25T03:24:21;6.37;;;5.77;;
14247;SDS011;7208;49.826;6.004;2023-04-25T03:26:46;8.80;;;5.83;;
14247;SDS011;7208;49.826;6.004;2023-04-25T03:29:12;7.03;;;5.27;;
14247;SDS011;7208;49.826;6.004;2023-04-25T03:31:38;6.13;;;5.53;;
14247;SDS011;7208;49.826;6.004;2023-04-25T03:34:03;5.63;;;4.87;;
14247;SDS011;7208;49.826;6.004;2023-04-25T03:36:29;9.80;;;4.60;;
14247;SDS011;7208;49.826;6.004;2023-04-25T03:38:55;9.80;;;5.97;;
14247;SDS011;7208;49.826;6.004;2023-04-25T03:41:21;6.70;;;5.83;;
14247;SDS011;7208;49.826;6.004;2023-04-25T03:43:46;6.03;;;5.43;;
14247;SDS011;7208;49.826;6.004;2023-04-25T03:46:12;15.63;;;11.50;;
14247;SDS011;7208;49.826;6.004;2023-04-25T03:48:38;10.77;;;7.57;;
14247;SDS011;7208;49.826;6.004;2023-04-25T03:51:04;9.70;;;5.97;;
14247;SDS011;7208;49.826;6.004;2023-04-25T03:53:35;6.67;;;6.00;;
14247;SDS011;7208;49.826;6.004;2023-04-25T03:56:01;8.80;;;6.20;;
14247;SDS011;7208;49.826;6.004;2023-04-25T03:58:27;7.23;;;5.83;;
14247;SDS011;7208;49.826;6.004;2023-04-25T04:00:53;10.93;;;5.63;;
14247;SDS011;7208;49.826;6.004;2023-04-25T04:03:19;7.30;;;6.00;;
14247;SDS011;7208;49.826;6.004;2023-04-25T04:05:45;8.10;;;5.90;;
14247;SDS011;7208;49.826;6.004;2023-04-25T04:08:12;8.57;;;5.93;;
14247;SDS011;7208;49.826;6.004;2023-04-25T04:10:38;9.40;;;5.60;;
14247;SDS011;7208;49.826;6.004;2023-04-25T04:13:04;7.20;;;5.80;;
14247;SDS011;7208;49.826;6.004;2023-04-25T04:15:30;7.53;;;5.40;;
14247;SDS011;7208;49.826;6.004;2023-04-25T04:17:58;7.73;;;5.87;;
14247;SDS011;7208;49.826;6.004;2023-04-25T04:20:27;8.13;;;5.83;;
14247;SDS011;7208;49.826;6.004;2023-04-25T04:22:54;8.90;;;6.65;;
14247;SDS011;7208;49.826;6.004;2023-04-25T04:25:20;8.80;;;6.37;;
14247;SDS011;7208;49.826;6.004;2023-04-25T04:27:46;7.10;;;5.60;;
14247;SDS011;7208;49.826;6.004;2023-04-25T04:30:12;5.90;;;5.30;;
14247;SDS011;7208;49.826;6.004;2023-04-25T04:32:38;8.33;;;6.03;;
14247;SDS011;7208;49.826;6.004;2023-04-25T04:35:04;9.07;;;5.23;;
14247;SDS011;7208;49.826;6.004;2023-04-25T04:37:31;7.67;;;5.57;;
14247;SDS011;7208;49.826;6.004;2023-04-25T04:39:58;7.30;;;5.57;;
14247;SDS011;7208;49.826;6.004;2023-04-25T04:42:24;10.10;;;6.03;;
14247;SDS011;7208;49.826;6.004;2023-04-25T04:44:50;9.20;;;6.53;;
14247;SDS011;7208;49.826;6.004;2023-04-25T04:47:17;7.00;;;5.40;;
14247;SDS011;7208;49.826;6.004;2023-04-25T04:49:45;6.37;;;5.67;;
14247;SDS011;7208;49.826;6.004;2023-04-25T04:52:11;9.33;;;6.77;;
14247;SDS011;7208;49.826;6.004;2023-04-25T04:54:37;9.97;;;6.17;;
14247;SDS011;7208;49.826;6.004;2023-04-25T04:57:03;6.83;;;5.73;;
14247;SDS011;7208;49.826;6.004;2023-04-25T04:59:29;7.33;;;5.93;;
14247;SDS011;7208;49.826;6.004;2023-04-25T05:01:55;10.57;;;6.70;;
14247;SDS011;7208;49.826;6.004;2023-04-25T05:04:21;9.10;;;6.63;;
14247;SDS011;7208;49.826;6.004;2023-04-25T05:06:47;7.87;;;6.77;;
14247;SDS011;7208;49.826;6.004;2023-04-25T05:09:13;8.57;;;6.33;;
14247;SDS011;7208;49.826;6.004;2023-04-25T05:11:40;11.63;;;6.83;;
14247;SDS011;7208;49.826;6.004;2023-04-25T05:14:06;7.37;;;5.93;;
14247;SDS011;7208;49.826;6.004;2023-04-25T05:16:32;8.67;;;6.17;;
14247;SDS011;7208;49.826;6.004;2023-04-25T05:18:57;12.13;;;7.93;;
14247;SDS011;7208;49.826;6.004;2023-04-25T05:21:23;15.60;;;9.67;;
14247;SDS011;7208;49.826;6.004;2023-04-25T05:23:50;15.17;;;9.43;;
14247;SDS011;7208;49.826;6.004;2023-04-25T05:26:16;18.33;;;9.87;;
14247;SDS011;7208;49.826;6.004;2023-04-25T05:28:42;19.37;;;9.60;;
14247;SDS011;7208;49.826;6.004;2023-04-25T05:31:11;18.87;;;10.10;;
14247;SDS011;7208;49.826;6.004;2023-04-25T05:33:37;16.67;;;9.27;;
14247;SDS011;7208;49.826;6.004;2023-04-25T05:36:03;14.43;;;8.23;;
14247;SDS011;7208;49.826;6.004;2023-04-25T05:38:29;16.63;;;7.93;;
14247;SDS011;7208;49.826;6.004;2023-04-25T05:40:55;13.73;;;7.33;;
14247;SDS011;7208;49.826;6.004;2023-04-25T05:43:21;17.77;;;8.37;;
14247;SDS011;7208;49.826;6.004;2023-04-25T05:45:47;12.20;;;8.10;;
14247;SDS011;7208;49.826;6.004;2023-04-25T05:48:13;14.07;;;8.33;;
14247;SDS011;7208;49.826;6.004;2023-04-25T05:50:39;13.90;;;7.73;;
14247;SDS011;7208;49.826;6.004;2023-04-25T05:53:05;11.73;;;7.00;;
14247;SDS011;7208;49.826;6.004;2023-04-25T05:55:31;9.47;;;6.97;;
14247;SDS011;7208;49.826;6.004;2023-04-25T05:57:57;8.17;;;6.57;;
14247;SDS011;7208;49.826;6.004;2023-04-25T06:00:23;13.70;;;8.43;;
14247;SDS011;7208;49.826;6.004;2023-04-25T06:02:50;9.17;;;6.67;;
14247;SDS011;7208;49.826;6.004;2023-04-25T06:05:16;15.17;;;8.00;;
14247;SDS011;7208;49.826;6.004;2023-04-25T06:07:42;13.60;;;6.80;;
14247;SDS011;7208;49.826;6.004;2023-04-25T06:10:08;9.53;;;5.53;;
14247;SDS011;7208;49.826;6.004;2023-04-25T06:12:34;16.57;;;6.47;;
14247;SDS011;7208;49.826;6.004;2023-04-25T06:15:00;12.23;;;6.80;;
14247;SDS011;7208;49.826;6.004;2023-04-25T06:17:26;14.00;;;7.30;;
14247;SDS011;7208;49.826;6.004;2023-04-25T06:19:52;10.27;;;6.37;;
14247;SDS011;7208;49.826;6.004;2023-04-25T06:22:18;19.30;;;7.47;;
14247;SDS011;7208;49.826;6.004;2023-04-25T06:24:45;13.30;;;7.20;;
14247;SDS011;7208;49.826;6.004;2023-04-25T06:27:11;11.73;;;6.80;;
14247;SDS011;7208;49.826;6.004;2023-04-25T06:29:37;9.63;;;6.97;;
14247;SDS011;7208;49.826;6.004;2023-04-25T06:32:03;14.23;;;6.77;;
14247;SDS011;7208;49.826;6.004;2023-04-25T06:34:29;15.13;;;8.10;;
14247;SDS011;7208;49.826;6.004;2023-04-25T06:36:55;10.87;;;6.97;;
14247;SDS011;7208;49.826;6.004;2023-04-25T06:39:21;12.23;;;7.27;;
14247;SDS011;7208;49.826;6.004;2023-04-25T06:41:50;10.53;;;7.47;;
14247;SDS011;7208;49.826;6.004;2023-04-25T06:44:16;14.00;;;6.97;;
14247;SDS011;7208;49.826;6.004;2023-04-25T06:46:42;19.53;;;7.07;;
14247;SDS011;7208;49.826;6.004;2023-04-25T06:49:08;13.43;;;6.83;;
14247;SDS011;7208;49.826;6.004;2023-04-25T06:51:34;11.27;;;7.27;;
14247;SDS011;7208;49.826;6.004;2023-04-25T06:54:00;17.83;;;8.20;;
14247;SDS011;7208;49.826;6.004;2023-04-25T06:56:27;16.90;;;7.40;;
14247;SDS011;7208;49.826;6.004;2023-04-25T06:58:55;15.80;;;8.63;;
14247;SDS011;7208;49.826;6.004;2023-04-25T07:01:21;16.93;;;8.07;;
14247;SDS011;7208;49.826;6.004;2023-04-25T07:03:47;15.20;;;8.27;;
14247;SDS011;7208;49.826;6.004;2023-04-25T07:06:13;13.77;;;8.07;;
14247;SDS011;7208;49.826;6.004;2023-04-25T07:08:39;13.03;;;7.93;;
14247;SDS011;7208;49.826;6.004;2023-04-25T07:11:05;8.87;;;6.70;;
14247;SDS011;7208;49.826;6.004;2023-04-25T07:13:31;15.23;;;7.43;;
14247;SDS011;7208;49.826;6.004;2023-04-25T07:15:58;8.37;;;7.03;;
14247;SDS011;7208;49.826;6.004;2023-04-25T07:18:24;10.40;;;7.37;;
14247;SDS011;7208;49.826;6.004;2023-04-25T07:20:50;11.43;;;7.57;;
14247;SDS011;7208;49.826;6.004;2023-04-25T07:23:16;11.80;;;7.17;;
14247;SDS011;7208;49.826;6.004;2023-04-25T07:25:42;11.33;;;6.87;;
14247;SDS011;7208;49.826;6.004;2023-04-25T07:28:08;11.83;;;7.27;;
14247;SDS011;7208;49.826;6.004;2023-04-25T07:30:34;15.63;;;6.73;;
14247;SDS011;7208;49.826;6.004;2023-04-25T07:33:00;11.57;;;6.10;;
14247;SDS011;7208;49.826;6.004;2023-04-25T07:35:26;14.10;;;7.00;;
14247;SDS011;7208;49.826;6.004;2023-04-25T07:37:52;15.67;;;6.83;;
14247;SDS011;7208;49.826;6.004;2023-04-25T07:40:18;13.13;;;6.03;;
14247;SDS011;7208;49.826;6.004;2023-04-25T07:42:44;9.80;;;5.93;;
14247;SDS011;7208;49.826;6.004;2023-04-25T07:45:10;9.47;;;5.73;;
14247;SDS011;7208;49.826;6.004;2023-04-25T07:47:36;10.93;;;6.40;;
14247;SDS011;7208;49.826;6.004;2023-04-25T07:50:03;10.73;;;5.60;;
14247;SDS011;7208;49.826;6.004;2023-04-25T07:52:29;12.50;;;5.90;;
14247;SDS011;7208;49.826;6.004;2023-04-25T07:54:56;8.03;;;6.03;;
14247;SDS011;7208;49.826;6.004;2023-04-25T07:57:23;10.33;;;7.07;;
14247;SDS011;7208;49.826;6.004;2023-04-25T07:59:49;6.33;;;5.13;;
14247;SDS011;7208;49.826;6.004;2023-04-25T08:02:15;5.87;;;5.10;;
14247;SDS011;7208;49.826;6.004;2023-04-25T08:04:41;9.47;;;5.80;;
14247;SDS011;7208;49.826;6.004;2023-04-25T08:07:07;6.40;;;5.07;;
14247;SDS011;7208;49.826;6.004;2023-04-25T08:09:34;6.90;;;4.97;;
14247;SDS011;7208;49.826;6.004;2023-04-25T08:12:01;8.60;;;4.83;;
14247;SDS011;7208;49.826;6.004;2023-04-25T08:14:28;7.63;;;4.50;;
14247;SDS011;7208;49.826;6.004;2023-04-25T08:16:56;6.07;;;3.67;;
14247;SDS011;7208;49.826;6.004;2023-04-25T08:19:22;10.63;;;4.40;;
14247;SDS011;7208;49.826;6.004;2023-04-25T08:21:48;5.67;;;4.07;;
14247;SDS011;7208;49.826;6.004;2023-04-25T08:24:15;6.37;;;3.83;;
14247;SDS011;7208;49.826;6.004;2023-04-25T08:26:41;5.60;;;4.13;;
14247;SDS011;7208;49.826;6.004;2023-04-25T08:29:07;9.70;;;4.00;;
14247;SDS011;7208;49.826;6.004;2023-04-25T08:31:33;7.23;;;4.43;;
14247;SDS011;7208;49.826;6.004;2023-04-25T08:33:59;4.43;;;4.00;;
14247;SDS011;7208;49.826;6.004;2023-04-25T08:36:25;5.97;;;3.47;;
14247;SDS011;7208;49.826;6.004;2023-04-25T08:38:53;3.90;;;3.47;;
14247;SDS011;7208;49.826;6.004;2023-04-25T08:41:19;4.77;;;3.43;;
14247;SDS011;7208;49.826;6.004;2023-04-25T08:43:47;4.90;;;3.13;;
14247;SDS011;7208;49.826;6.004;2023-04-25T08:46:14;4.57;;;3.23;;
14247;SDS011;7208;49.826;6.004;2023-04-25T08:48:43;6.47;;;3.53;;
14247;SDS011;7208;49.826;6.004;2023-04-25T08:51:10;5.87;;;3.57;;
14247;SDS011;7208;49.826;6.004;2023-04-25T08:53:39;7.83;;;3.57;;
14247;SDS011;7208;49.826;6.004;2023-04-25T08:56:07;6.63;;;4.20;;
14247;SDS011;7208;49.826;6.004;2023-04-25T08:58:34;7.33;;;3.60;;
14247;SDS011;7208;49.826;6.004;2023-04-25T09:01:01;5.00;;;3.73;;
14247;SDS011;7208;49.826;6.004;2023-04-25T09:03:27;8.73;;;4.23;;
14247;SDS011;7208;49.826;6.004;2023-04-25T09:05:53;3.87;;;3.47;;
14247;SDS011;7208;49.826;6.004;2023-04-25T09:08:19;3.83;;;3.53;;
14247;SDS011;7208;49.826;6.004;2023-04-25T09:10:45;4.27;;;3.50;;
14247;SDS011;7208;49.826;6.004;2023-04-25T09:13:14;3.63;;;3.27;;
14247;SDS011;7208;49.826;6.004;2023-04-25T09:15:53;4.73;;;3.20;;
14247;SDS011;7208;49.826;6.004;2023-04-25T09:20:52;6.10;;;3.30;;
14247;SDS011;7208;49.826;6.004;2023-04-25T09:23:19;5.80;;;2.80;;
14247;SDS011;7208;49.826;6.004;2023-04-25T09:25:50;5.10;;;3.07;;
14247;SDS011;7208;49.826;6.004;2023-04-25T09:28:16;4.43;;;3.07;;
14247;SDS011;7208;49.826;6.004;2023-04-25T09:30:43;7.90;;;3.43;;
14247;SDS011;7208;49.826;6.004;2023-04-25T09:33:11;4.77;;;3.53;;
14247;SDS011;7208;49.826;6.004;2023-04-25T09:35:38;5.60;;;3.00;;
14247;SDS011;7208;49.826;6.004;2023-04-25T09:38:08;6.10;;;3.27;;
14247;SDS011;7208;49.826;6.004;2023-04-25T09:40:38;4.47;;;3.27;;
14247;SDS011;7208;49.826;6.004;2023-04-25T09:43:08;4.17;;;3.40;;
14247;SDS011;7208;49.826;6.004;2023-04-25T09:45:40;3.37;;;2.87;;
14247;SDS011;7208;49.826;6.004;2023-04-25T09:48:06;6.20;;;2.97;;
14247;SDS011;7208;49.826;6.004;2023-04-25T09:50:32;3.17;;;2.20;;
14247;SDS011;7208;49.826;6.004;2023-04-25T09:53:04;2.77;;;2.57;;
14247;SDS011;7208;49.826;6.004;2023-04-25T09:55:31;3.63;;;3.33;;
14247;SDS011;7208;49.826;6.004;2023-04-25T09:57:58;4.67;;;3.60;;
14247;SDS011;7208;49.826;6.004;2023-04-25T10:00:26;4.97;;;3.70;;
14247;SDS011;7208;49.826;6.004;2023-04-25T10:02:52;5.27;;;3.53;;
14247;SDS011;7208;49.826;6.004;2023-04-25T10:05:18;4.90;;;3.50;;
14247;SDS011;7208;49.826;6.004;2023-04-25T10:07:44;5.27;;;3.10;;
14247;SDS011;7208;49.826;6.004;2023-04-25T10:10:11;8.13;;;3.33;;
14247;SDS011;7208;49.826;6.004;2023-04-25T10:12:38;4.20;;;3.33;;
14247;SDS011;7208;49.826;6.004;2023-04-25T10:15:05;5.07;;;2.90;;
14247;SDS011;7208;49.826;6.004;2023-04-25T10:17:32;4.13;;;3.00;;
14247;SDS011;7208;49.826;6.004;2023-04-25T10:20:00;4.87;;;3.30;;
14247;SDS011;7208;49.826;6.004;2023-04-25T10:22:39;3.73;;;3.33;;
14247;SDS011;7208;49.826;6.004;2023-04-25T10:25:07;6.50;;;3.17;;
14247;SDS011;7208;49.826;6.004;2023-04-25T10:27:33;3.77;;;3.30;;
14247;SDS011;7208;49.826;6.004;2023-04-25T10:30:00;6.20;;;3.17;;
14247;SDS011;7208;49.826;6.004;2023-04-25T10:32:30;5.70;;;3.80;;
14247;SDS011;7208;49.826;6.004;2023-04-25T10:34:57;3.60;;;3.30;;
14247;SDS011;7208;49.826;6.004;2023-04-25T10:37:23;5.00;;;3.23;;
14247;SDS011;7208;49.826;6.004;2023-04-25T10:39:50;8.17;;;3.73;;
14247;SDS011;7208;49.826;6.004;2023-04-25T10:42:18;2.80;;;2.27;;
14247;SDS011;7208;49.826;6.004;2023-04-25T10:45:00;3.13;;;2.37;;
14247;SDS011;7208;49.826;6.004;2023-04-25T10:47:34;3.80;;;2.73;;
14247;SDS011;7208;49.826;6.004;2023-04-25T10:50:04;5.03;;;2.80;;
14247;SDS011;7208;49.826;6.004;2023-04-25T10:52:32;7.43;;;2.83;;
14247;SDS011;7208;49.826;6.004;2023-04-25T10:54:58;6.13;;;3.23;;
14247;SDS011;7208;49.826;6.004;2023-04-25T10:59:59;8.00;;;3.30;;
14247;SDS011;7208;49.826;6.004;2023-04-25T11:02:27;6.00;;;3.20;;
14247;SDS011;7208;49.826;6.004;2023-04-25T11:04:54;3.93;;;3.00;;
14247;SDS011;7208;49.826;6.004;2023-04-25T11:07:26;5.50;;;3.13;;
14247;SDS011;7208;49.826;6.004;2023-04-25T11:09:55;5.23;;;3.20;;
14247;SDS011;7208;49.826;6.004;2023-04-25T11:12:21;2.37;;;2.17;;
14247;SDS011;7208;49.826;6.004;2023-04-25T11:14:50;2.67;;;2.33;;
14247;SDS011;7208;49.826;6.004;2023-04-25T11:17:16;5.00;;;2.20;;
14247;SDS011;7208;49.826;6.004;2023-04-25T11:19:42;5.37;;;2.60;;
14247;SDS011;7208;49.826;6.004;2023-04-25T11:22:09;3.17;;;2.60;;
14247;SDS011;7208;49.826;6.004;2023-04-25T11:24:36;4.67;;;3.00;;
14247;SDS011;7208;49.826;6.004;2023-04-25T11:27:02;2.83;;;2.63;;
14247;SDS011;7208;49.826;6.004;2023-04-25T11:29:30;3.70;;;2.97;;
14247;SDS011;7208;49.826;6.004;2023-04-25T11:31:56;4.20;;;3.23;;
14247;SDS011;7208;49.826;6.004;2023-04-25T11:34:26;3.80;;;2.53;;
14247;SDS011;7208;49.826;6.004;2023-04-25T11:36:52;4.30;;;2.90;;
14247;SDS011;7208;49.826;6.004;2023-04-25T11:39:19;3.60;;;2.80;;
14247;SDS011;7208;49.826;6.004;2023-04-25T11:41:45;3.10;;;2.70;;
14247;SDS011;7208;49.826;6.004;2023-04-25T11:44:12;6.40;;;2.97;;
14247;SDS011;7208;49.826;6.004;2023-04-25T11:46:40;2.97;;;2.30;;
14247;SDS011;7208;49.826;6.004;2023-04-25T11:49:07;5.93;;;2.70;;
14247;SDS011;7208;49.826;6.004;2023-04-25T11:51:43;4.30;;;2.07;;
14247;SDS011;7208;49.826;6.004;2023-04-25T11:54:10;6.87;;;3.20;;
14247;SDS011;7208;49.826;6.004;2023-04-25T11:56:36;2.63;;;1.90;;
14247;SDS011;7208;49.826;6.004;2023-04-25T11:59:03;4.27;;;2.30;;
14247;SDS011;7208;49.826;6.004;2023-04-25T12:01:37;7.30;;;1.83;;
14247;SDS011;7208;49.826;6.004;2023-04-25T12:04:22;4.87;;;2.50;;
14247;SDS011;7208;49.826;6.004;2023-04-25T12:06:50;4.10;;;1.87;;
14247;SDS011;7208;49.826;6.004;2023-04-25T12:09:17;3.73;;;1.73;;
14247;SDS011;7208;49.826;6.004;2023-04-25T12:11:53;6.43;;;1.97;;
14247;SDS011;7208;49.826;6.004;2023-04-25T12:14:27;3.73;;;1.60;;
14247;SDS011;7208;49.826;6.004;2023-04-25T12:16:55;3.83;;;1.97;;
14247;SDS011;7208;49.826;6.004;2023-04-25T12:19:22;4.67;;;1.80;;
14247;SDS011;7208;49.826;6.004;2023-04-25T12:21:48;5.90;;;1.80;;
14247;SDS011;7208;49.826;6.004;2023-04-25T12:24:22;7.70;;;2.20;;
14247;SDS011;7208;49.826;6.004;2023-04-25T12:26:58;3.37;;;2.00;;
14247;SDS011;7208;49.826;6.004;2023-04-25T12:29:26;3.60;;;1.90;;
14247;SDS011;7208;49.826;6.004;2023-04-25T12:31:53;3.53;;;2.10;;
14247;SDS011;7208;49.826;6.004;2023-04-25T12:34:23;3.80;;;2.50;;
14247;SDS011;7208;49.826;6.004;2023-04-25T12:36:50;4.07;;;2.17;;
14247;SDS011;7208;49.826;6.004;2023-04-25T12:39:19;3.63;;;2.23;;
14247;SDS011;7208;49.826;6.004;2023-04-25T12:45:11;2.93;;;1.73;;
14247;SDS011;7208;49.826;6.004;2023-04-25T12:47:37;4.50;;;2.23;;
14247;SDS011;7208;49.826;6.004;2023-04-25T12:50:03;4.27;;;2.13;;
14247;SDS011;7208;49.826;6.004;2023-04-25T12:52:29;5.03;;;1.67;;
14247;SDS011;7208;49.826;6.004;2023-04-25T12:54:55;3.10;;;2.10;;
14247;SDS011;7208;49.826;6.004;2023-04-25T12:57:21;6.20;;;2.73;;
14247;SDS011;7208;49.826;6.004;2023-04-25T12:59:47;5.43;;;1.80;;
14247;SDS011;7208;49.826;6.004;2023-04-25T13:02:13;2.17;;;1.57;;
14247;SDS011;7208;49.826;6.004;2023-04-25T13:04:39;2.87;;;1.60;;
14247;SDS011;7208;49.826;6.004;2023-04-25T13:07:05;4.60;;;2.30;;
14247;SDS011;7208;49.826;6.004;2023-04-25T13:09:31;4.07;;;1.80;;
14247;SDS011;7208;49.826;6.004;2023-04-25T13:11:57;4.13;;;1.90;;
14247;SDS011;7208;49.826;6.004;2023-04-25T13:14:23;4.17;;;1.60;;
14247;SDS011;7208;49.826;6.004;2023-04-25T13:16:49;3.43;;;1.80;;
14247;SDS011;7208;49.826;6.004;2023-04-25T13:19:16;3.20;;;2.17;;
14247;SDS011;7208;49.826;6.004;2023-04-25T13:21:42;4.67;;;2.00;;
14247;SDS011;7208;49.826;6.004;2023-04-25T13:24:08;2.20;;;1.80;;
14247;SDS011;7208;49.826;6.004;2023-04-25T13:26:34;1.83;;;1.53;;
14247;SDS011;7208;49.826;6.004;2023-04-25T13:29:00;4.23;;;1.93;;
14247;SDS011;7208;49.826;6.004;2023-04-25T13:31:28;4.50;;;1.90;;
14247;SDS011;7208;49.826;6.004;2023-04-25T13:33:54;3.80;;;1.90;;
14247;SDS011;7208;49.826;6.004;2023-04-25T13:36:20;2.70;;;1.83;;
14247;SDS011;7208;49.826;6.004;2023-04-25T13:38:46;2.67;;;2.40;;
14247;SDS011;7208;49.826;6.004;2023-04-25T13:41:14;1.70;;;1.30;;
14247;SDS011;7208;49.826;6.004;2023-04-25T13:43:43;3.53;;;1.53;;
14247;SDS011;7208;49.826;6.004;2023-04-25T13:46:10;3.97;;;2.00;;
14247;SDS011;7208;49.826;6.004;2023-04-25T13:48:37;2.97;;;1.70;;
14247;SDS011;7208;49.826;6.004;2023-04-25T13:51:03;2.17;;;1.90;;
14247;SDS011;7208;49.826;6.004;2023-04-25T13:53:29;1.70;;;1.60;;
14247;SDS011;7208;49.826;6.004;2023-04-25T13:55:55;2.00;;;1.47;;
14247;SDS011;7208;49.826;6.004;2023-04-25T13:58:22;6.53;;;2.30;;
14247;SDS011;7208;49.826;6.004;2023-04-25T14:00:48;4.20;;;2.00;;
14247;SDS011;7208;49.826;6.004;2023-04-25T14:03:14;4.43;;;1.60;;
14247;SDS011;7208;49.826;6.004;2023-04-25T14:05:40;3.77;;;1.60;;
14247;SDS011;7208;49.826;6.004;2023-04-25T14:08:09;5.03;;;2.07;;
14247;SDS011;7208;49.826;6.004;2023-04-25T14:10:35;3.73;;;2.07;;
14247;SDS011;7208;49.826;6.004;2023-04-25T14:13:02;2.57;;;1.80;;
14247;SDS011;7208;49.826;6.004;2023-04-25T14:15:28;4.17;;;1.73;;
14247;SDS011;7208;49.826;6.004;2023-04-25T14:17:54;1.97;;;1.70;;
14247;SDS011;7208;49.826;6.004;2023-04-25T14:20:20;4.33;;;2.03;;
14247;SDS011;7208;49.826;6.004;2023-04-25T14:22:48;5.13;;;1.90;;
14247;SDS011;7208;49.826;6.004;2023-04-25T14:25:14;3.03;;;1.70;;
14247;SDS011;7208;49.826;6.004;2023-04-25T14:27:40;3.30;;;1.73;;
14247;SDS011;7208;49.826;6.004;2023-04-25T14:30:07;5.07;;;1.90;;
14247;SDS011;7208;49.826;6.004;2023-04-25T14:32:34;3.67;;;1.70;;
14247;SDS011;7208;49.826;6.004;2023-04-25T14:35:00;2.93;;;1.73;;
14247;SDS011;7208;49.826;6.004;2023-04-25T14:37:26;7.00;;;2.57;;
14247;SDS011;7208;49.826;6.004;2023-04-25T14:39:52;4.03;;;2.03;;
14247;SDS011;7208;49.826;6.004;2023-04-25T14:42:18;3.03;;;2.00;;
14247;SDS011;7208;49.826;6.004;2023-04-25T14:44:44;1.93;;;1.67;;
14247;SDS011;7208;49.826;6.004;2023-04-25T14:47:10;3.97;;;2.97;;
14247;SDS011;7208;49.826;6.004;2023-04-25T14:49:36;4.47;;;2.40;;
14247;SDS011;7208;49.826;6.004;2023-04-25T14:52:02;2.57;;;1.73;;
14247;SDS011;7208;49.826;6.004;2023-04-25T14:54:28;4.20;;;1.87;;
14247;SDS011;7208;49.826;6.004;2023-04-25T14:56:54;3.47;;;1.90;;
14247;SDS011;7208;49.826;6.004;2023-04-25T14:59:21;4.40;;;2.63;;
14247;SDS011;7208;49.826;6.004;2023-04-25T15:01:47;2.47;;;1.73;;
14247;SDS011;7208;49.826;6.004;2023-04-25T15:04:13;3.50;;;1.77;;